createdAt,value
2023-01-12T00:03:15.585Z,-7.98
2023-01-12T00:05:42.508Z,-8.00
2023-01-12T00:08:09.321Z,-7.97
2023-01-12T00:10:36.232Z,-7.92
2023-01-12T00:13:03.052Z,-7.85
2023-01-12T00:15:48.616Z,-7.76
2023-01-12T00:18:15.444Z,-7.67
2023-01-12T00:20:48.440Z,-7.66
2023-01-12T00:23:15.241Z,-7.64
2023-01-12T00:25:42.008Z,-7.60
2023-01-12T00:28:08.785Z,-7.58
2023-01-12T00:30:35.559Z,-7.59
2023-01-12T00:33:02.305Z,-7.59
2023-01-12T00:35:29.236Z,-7.58
2023-01-12T00:37:56.035Z,-7.54
2023-01-12T00:40:22.919Z,-7.55
2023-01-12T00:43:08.576Z,-7.54
2023-01-12T00:45:35.372Z,-7.51
2023-01-12T00:48:02.145Z,-7.40
2023-01-12T00:50:29.598Z,-7.30
2023-01-12T00:52:56.368Z,-7.23
2023-01-12T00:55:23.502Z,-7.26
2023-01-12T00:57:50.378Z,-7.27
2023-01-12T01:00:18.198Z,-7.22
2023-01-12T01:02:45.055Z,-7.20
2023-01-12T01:05:12.176Z,-7.17
2023-01-12T01:07:39.036Z,-7.18
2023-01-12T01:10:06.570Z,-7.18
2023-01-12T01:12:33.394Z,-7.22
2023-01-12T01:15:00.319Z,-7.23
2023-01-12T01:17:28.788Z,-7.21
2023-01-12T01:19:55.590Z,-7.16
2023-01-12T01:22:22.353Z,-7.08
2023-01-12T01:24:49.241Z,-7.06
2023-01-12T01:27:16.176Z,-7.03
2023-01-12T01:29:43.001Z,-7.02
2023-01-12T01:32:09.887Z,-6.98
2023-01-12T01:34:37.379Z,-6.94
2023-01-12T01:37:04.366Z,-6.92
2023-01-12T01:39:31.176Z,-6.93
2023-01-12T01:41:58.266Z,-6.99
2023-01-12T01:44:31.248Z,-6.97
2023-01-12T01:47:03.027Z,-6.90
2023-01-12T01:49:37.195Z,-6.81
2023-01-12T01:52:06.889Z,-6.79
2023-01-12T01:54:36.619Z,-6.83
2023-01-12T01:57:03.679Z,-6.85
2023-01-12T01:59:32.636Z,-6.90
2023-01-12T02:01:59.590Z,-6.91
2023-01-12T02:04:26.507Z,-6.91
2023-01-12T02:06:54.177Z,-6.88
2023-01-12T02:09:22.674Z,-6.88
2023-01-12T02:12:08.288Z,-6.88
2023-01-12T02:14:54.052Z,-6.88
2023-01-12T02:17:36.311Z,-6.79
2023-01-12T02:20:21.567Z,-6.73
2023-01-12T02:23:07.219Z,-6.68
2023-01-12T02:25:33.957Z,-6.62
2023-01-12T02:28:19.663Z,-6.54
2023-01-12T02:31:40.673Z,-6.49
2023-01-12T02:34:18.515Z,-6.56
2023-01-12T02:36:52.981Z,-6.55
2023-01-12T02:39:26.095Z,-6.51
2023-01-12T02:42:25.661Z,-6.46
2023-01-12T02:45:04.768Z,-6.45
2023-01-12T02:47:55.814Z,-6.44
2023-01-12T02:50:46.648Z,-6.45
2023-01-12T02:53:24.532Z,-6.44
2023-01-12T02:55:51.472Z,-6.45
2023-01-12T02:58:19.007Z,-6.44
2023-01-12T03:00:45.965Z,-6.50
2023-01-12T03:03:12.964Z,-6.60
2023-01-12T03:05:41.617Z,-6.69
2023-01-12T03:08:09.715Z,-6.76
2023-01-12T03:10:42.869Z,-6.84
2023-01-12T03:13:12.206Z,-6.83
2023-01-12T03:15:41.974Z,-6.85
2023-01-12T03:18:12.716Z,-6.84
2023-01-12T03:20:43.904Z,-6.86
2023-01-12T03:23:17.676Z,-6.86
2023-01-12T03:25:44.702Z,-6.82
2023-01-12T03:28:12.921Z,-6.79
2023-01-12T03:31:09.229Z,-6.76
2023-01-12T03:33:36.037Z,-6.71
2023-01-12T03:36:16.243Z,-6.66
2023-01-12T03:38:47.083Z,-6.62
2023-01-12T03:41:21.002Z,-6.58
2023-01-12T03:43:51.132Z,-6.49
2023-01-12T03:46:33.997Z,-6.43
2023-01-12T03:49:03.256Z,-6.38
2023-01-12T03:51:32.826Z,-6.34
2023-01-12T03:53:59.720Z,-6.23
2023-01-12T03:56:29.065Z,-6.09
2023-01-12T03:58:55.900Z,-6.03
2023-01-12T04:01:22.955Z,-5.98
2023-01-12T04:03:49.935Z,-5.99
2023-01-12T04:06:16.843Z,-6.03
2023-01-12T04:08:43.651Z,-6.06
2023-01-12T08:19:02.922Z,-5.19
2023-01-12T08:21:39.789Z,-5.17
2023-01-12T08:24:06.907Z,-5.12
2023-01-12T08:26:36.865Z,-5.06
2023-01-12T08:29:12.921Z,-4.97
2023-01-12T08:31:39.958Z,-4.85
2023-01-12T08:34:06.760Z,-4.77
2023-01-12T08:36:33.603Z,-4.74
2023-01-12T08:39:01.593Z,-4.67
2023-01-12T08:41:34.643Z,-4.62
2023-01-12T08:44:02.570Z,-4.56
2023-01-12T08:46:37.435Z,-4.47
2023-01-12T08:49:07.944Z,-4.42
2023-01-12T08:51:35.440Z,-4.41
2023-01-12T08:54:02.559Z,-4.43
2023-01-12T08:56:29.564Z,-4.45
2023-01-12T08:58:56.493Z,-4.45
2023-01-12T09:01:23.559Z,-4.43
2023-01-12T09:03:50.520Z,-4.40
2023-01-12T09:06:19.408Z,-4.32
2023-01-12T09:08:46.772Z,-4.36
2023-01-12T09:11:15.662Z,-4.40
2023-01-12T09:13:42.460Z,-4.42
2023-01-12T09:16:14.629Z,-4.37
2023-01-12T09:18:42.098Z,-4.36
2023-01-12T09:21:10.993Z,-4.27
2023-01-12T09:23:38.212Z,-4.21
2023-01-12T09:26:06.602Z,-4.12
2023-01-12T09:28:34.000Z,-4.08
2023-01-12T09:31:05.738Z,-4.07
2023-01-12T09:33:33.110Z,-4.04
2023-01-12T09:36:03.767Z,-3.92
2023-01-12T09:38:31.011Z,-3.90
2023-01-12T09:41:02.398Z,-3.83
2023-01-12T09:43:48.156Z,-3.76
2023-01-12T09:46:37.040Z,-3.76
2023-01-12T09:49:03.899Z,-3.78
2023-01-12T09:51:36.464Z,-3.81
2023-01-12T09:54:04.591Z,-3.82
2023-01-12T09:56:40.807Z,-3.84
2023-01-12T09:59:11.359Z,-3.83
2023-01-12T10:01:38.345Z,-3.78
2023-01-12T10:04:05.343Z,-3.75
2023-01-12T10:06:33.147Z,-3.74
2023-01-12T10:09:01.041Z,-3.73
2023-01-12T10:11:57.221Z,-3.73
2023-01-12T10:14:33.836Z,-3.62
2023-01-12T10:17:10.229Z,-3.61
2023-01-12T10:20:02.921Z,-3.59
2023-01-12T10:22:38.202Z,-3.66
2023-01-12T10:25:13.410Z,-3.69
2023-01-12T10:27:42.453Z,-3.71
2023-01-12T10:30:18.158Z,-3.71
2023-01-12T10:32:45.076Z,-3.72
2023-01-12T10:35:17.308Z,-3.75
2023-01-12T10:37:55.072Z,-3.68
2023-01-12T10:40:29.644Z,-3.64
2023-01-12T10:43:21.839Z,-3.60
2023-01-12T10:45:54.761Z,-3.61
2023-01-12T10:48:26.885Z,-3.64
2023-01-12T10:51:20.181Z,-3.67
2023-01-12T10:53:57.263Z,-3.61
2023-01-12T10:56:30.066Z,-3.57
2023-01-12T10:59:05.377Z,-3.56
2023-01-12T11:01:53.542Z,-3.53
2023-01-12T11:04:26.234Z,-3.50
2023-01-12T11:07:08.452Z,-3.45
2023-01-12T11:09:35.398Z,-3.40
2023-01-12T11:12:03.823Z,-3.42
2023-01-12T11:14:37.249Z,-3.36
2023-01-12T11:17:30.886Z,-3.35
2023-01-12T11:19:57.802Z,-3.34
2023-01-12T11:22:27.634Z,-3.30
2023-01-12T11:25:04.129Z,-3.32
2023-01-12T11:27:36.173Z,-3.33
2023-01-12T11:30:15.979Z,-3.30
2023-01-12T11:33:12.848Z,-3.24
2023-01-12T11:35:41.366Z,-3.16
2023-01-12T11:38:18.959Z,-3.15
2023-01-12T11:40:46.885Z,-3.15
2023-01-12T11:43:35.179Z,-3.19
2023-01-12T11:46:15.225Z,-3.23
2023-01-12T11:49:10.870Z,-3.27
2023-01-12T11:51:38.181Z,-3.22
2023-01-12T11:54:05.920Z,-3.19
2023-01-12T11:56:51.071Z,-3.15
2023-01-12T16:19:00.004Z,-4.53
2023-01-12T16:21:27.885Z,-4.54
2023-01-12T16:23:57.747Z,-4.51
2023-01-12T16:26:25.820Z,-4.46
2023-01-12T16:28:52.737Z,-4.41
2023-01-12T16:31:20.267Z,-4.34
2023-01-12T16:33:47.066Z,-4.33
2023-01-12T16:36:14.326Z,-4.27
2023-01-12T16:38:41.168Z,-4.23
2023-01-12T16:41:12.757Z,-4.24
2023-01-12T16:43:39.495Z,-4.24
2023-01-12T16:46:06.509Z,-4.24
2023-01-12T16:48:34.078Z,-4.20
2023-01-12T16:51:00.948Z,-4.15
2023-01-12T16:53:28.060Z,-4.12
2023-01-12T16:55:54.865Z,-4.13
2023-01-12T16:58:21.748Z,-4.12
2023-01-12T17:00:48.573Z,-4.11
2023-01-12T17:03:15.408Z,-4.07
2023-01-12T17:05:42.329Z,-4.05
2023-01-12T17:08:09.382Z,-4.05
2023-01-12T17:10:36.500Z,-4.07
2023-01-12T17:13:03.394Z,-4.05
2023-01-12T17:15:30.429Z,-4.07
2023-01-12T17:17:57.513Z,-4.07
2023-01-12T17:20:24.750Z,-4.07
2023-01-12T17:22:51.834Z,-4.09
2023-01-12T17:25:18.791Z,-4.10
2023-01-12T17:27:45.666Z,-4.09
2023-01-12T17:30:12.783Z,-4.08
2023-01-12T17:32:39.792Z,-4.02
2023-01-12T17:35:09.560Z,-3.93
2023-01-12T17:37:36.474Z,-3.83
2023-01-12T17:40:03.919Z,-3.84
2023-01-12T17:42:51.684Z,-3.85
2023-01-12T17:45:19.756Z,-3.86
2023-01-12T17:47:46.629Z,-3.89
2023-01-12T17:50:13.633Z,-3.90
2023-01-12T17:52:40.507Z,-3.92
2023-01-12T17:55:07.507Z,-3.91
2023-01-12T17:57:36.541Z,-3.88
2023-01-12T18:00:07.229Z,-3.86
2023-01-12T18:02:40.919Z,-3.95
2023-01-12T18:05:08.117Z,-3.93
2023-01-12T18:07:35.646Z,-3.94
2023-01-12T18:10:02.442Z,-3.96
2023-01-12T18:12:30.211Z,-4.00
2023-01-12T18:14:56.939Z,-3.98
2023-01-12T18:17:24.386Z,-3.99
2023-01-12T18:19:52.037Z,-4.00
2023-01-12T18:22:18.823Z,-3.98
2023-01-12T18:24:45.699Z,-3.98
2023-01-12T18:27:12.789Z,-4.01
2023-01-12T18:29:39.639Z,-4.02
2023-01-12T18:32:06.594Z,-4.06
2023-01-12T18:34:33.393Z,-4.13
2023-01-12T18:37:00.280Z,-4.16
2023-01-12T18:39:27.108Z,-4.13
2023-01-12T18:42:12.487Z,-4.08
2023-01-12T18:44:39.954Z,-4.07
2023-01-12T18:47:25.380Z,-4.06
2023-01-12T18:49:57.440Z,-4.06
2023-01-12T18:52:42.713Z,-4.07
2023-01-12T18:55:09.563Z,-4.01
2023-01-12T18:57:36.381Z,-3.97
2023-01-12T19:00:14.396Z,-3.96
2023-01-12T19:02:42.016Z,-3.98
2023-01-12T19:05:32.535Z,-4.01
2023-01-12T19:08:00.415Z,-4.01
2023-01-12T19:10:28.053Z,-3.99
2023-01-12T19:13:18.105Z,-3.98
2023-01-12T19:16:03.522Z,-3.97
2023-01-12T19:18:30.391Z,-3.96
2023-01-12T19:21:15.736Z,-3.97
2023-01-12T19:24:01.198Z,-4.03
2023-01-12T19:27:00.418Z,-4.18
2023-01-12T19:29:27.262Z,-4.23
2023-01-12T19:31:54.215Z,-4.24
2023-01-12T19:34:21.045Z,-4.21
2023-01-12T19:36:48.002Z,-4.15
2023-01-12T19:39:15.595Z,-4.14
2023-01-12T19:42:01.160Z,-4.20
2023-01-12T19:44:27.974Z,-4.22
2023-01-12T19:46:54.775Z,-4.24
2023-01-12T19:49:21.534Z,-4.24
2023-01-12T19:51:49.770Z,-4.23
2023-01-12T19:54:16.579Z,-4.26
2023-01-12T19:56:46.572Z,-4.25
2023-01-12T19:59:14.346Z,-4.23
2023-01-12T20:01:41.365Z,-4.23
2023-01-12T20:04:08.525Z,-4.21
2023-01-12T20:06:35.783Z,-4.21
2023-01-12T20:09:02.658Z,-4.19
2023-01-12T22:35:10.824Z,-5.01
2023-01-12T22:37:38.182Z,-5.00
2023-01-12T22:40:07.292Z,-4.97
2023-01-12T22:42:52.894Z,-4.93
2023-01-12T22:45:19.852Z,-4.88
2023-01-12T22:47:51.587Z,-4.82
2023-01-12T22:50:18.519Z,-4.75
2023-01-12T22:52:50.601Z,-4.71
2023-01-12T22:55:17.796Z,-4.62
2023-01-12T22:57:44.702Z,-4.54
2023-01-12T23:00:13.183Z,-4.49
2023-01-12T23:02:59.056Z,-4.48
2023-01-12T23:05:27.566Z,-4.46
2023-01-12T23:07:55.234Z,-4.42
2023-01-12T23:10:22.185Z,-4.42
2023-01-12T23:13:07.841Z,-4.41
2023-01-12T23:15:53.566Z,-4.38
2023-01-12T23:18:22.187Z,-4.41
2023-01-12T23:20:49.432Z,-4.43
2023-01-12T23:23:18.249Z,-4.36
2023-01-12T23:25:46.286Z,-4.29
2023-01-12T23:28:14.053Z,-4.25
2023-01-12T23:30:42.458Z,-4.27
2023-01-12T23:33:13.405Z,-4.29
2023-01-12T23:35:41.233Z,-4.28
2023-01-12T23:38:09.658Z,-4.28
2023-01-12T23:40:38.119Z,-4.29
2023-01-12T23:43:05.074Z,-4.26
2023-01-12T23:45:49.114Z,-4.23
2023-01-12T23:48:16.017Z,-4.26
2023-01-12T23:50:43.018Z,-4.28
